sensor_id;sensor_type;location;lat;lon;timestamp;temperature;humidity
68109;SHT30;54893;49.864;19.084;2023-04-24T00:02:31;13.28;55.09
68109;SHT30;54893;49.864;19.084;2023-04-24T00:07:33;13.43;54.76
68109;SHT30;54893;49.864;19.084;2023-04-24T00:12:33;13.50;54.69
68109;SHT30;54893;49.864;19.084;2023-04-24T00:17:33;13.57;54.28
68109;SHT30;54893;49.864;19.084;2023-04-24T00:22:34;13.50;54.52
68109;SHT30;54893;49.864;19.084;2023-04-24T00:27:34;13.61;54.01
68109;SHT30;54893;49.864;19.084;2023-04-24T00:32:37;13.61;53.86
68109;SHT30;54893;49.864;19.084;2023-04-24T00:37:37;13.73;54.10
68109;SHT30;54893;49.864;19.084;2023-04-24T00:42:39;13.55;53.95
68109;SHT30;54893;49.864;19.084;2023-04-24T00:47:41;13.63;53.61
68109;SHT30;54893;49.864;19.084;2023-04-24T00:52:42;13.54;53.86
68109;SHT30;54893;49.864;19.084;2023-04-24T00:57:43;13.70;53.34
68109;SHT30;54893;49.864;19.084;2023-04-24T01:02:44;13.64;53.18
68109;SHT30;54893;49.864;19.084;2023-04-24T01:07:45;13.73;52.91
68109;SHT30;54893;49.864;19.084;2023-04-24T01:12:47;13.63;53.06
68109;SHT30;54893;49.864;19.084;2023-04-24T01:17:47;13.63;53.11
68109;SHT30;54893;49.864;19.084;2023-04-24T01:22:48;13.48;53.40
68109;SHT30;54893;49.864;19.084;2023-04-24T01:27:48;13.70;52.43
68109;SHT30;54893;49.864;19.084;2023-04-24T01:32:49;13.51;53.04
68109;SHT30;54893;49.864;19.084;2023-04-24T01:37:49;13.33;53.38
68109;SHT30;54893;49.864;19.084;2023-04-24T01:42:50;13.37;53.23
68109;SHT30;54893;49.864;19.084;2023-04-24T01:47:51;13.43;53.00
68109;SHT30;54893;49.864;19.084;2023-04-24T01:52:51;13.36;53.16
68109;SHT30;54893;49.864;19.084;2023-04-24T01:57:55;13.63;52.35
68109;SHT30;54893;49.864;19.084;2023-04-24T02:02:56;13.39;52.76
68109;SHT30;54893;49.864;19.084;2023-04-24T02:07:56;13.28;53.18
68109;SHT30;54893;49.864;19.084;2023-04-24T02:12:57;13.53;52.35
68109;SHT30;54893;49.864;19.084;2023-04-24T02:17:59;13.70;51.94
68109;SHT30;54893;49.864;19.084;2023-04-24T02:23:00;13.77;51.78
68109;SHT30;54893;49.864;19.084;2023-04-24T02:28:00;13.78;51.56
68109;SHT30;54893;49.864;19.084;2023-04-24T02:33:01;13.77;52.14
68109;SHT30;54893;49.864;19.084;2023-04-24T02:38:01;13.92;51.41
68109;SHT30;54893;49.864;19.084;2023-04-24T02:43:01;13.95;51.13
68109;SHT30;54893;49.864;19.084;2023-04-24T02:48:02;14.02;51.18
68109;SHT30;54893;49.864;19.084;2023-04-24T02:53:02;14.09;51.00
68109;SHT30;54893;49.864;19.084;2023-04-24T02:58:03;13.94;51.27
68109;SHT30;54893;49.864;19.084;2023-04-24T03:03:03;13.87;51.50
68109;SHT30;54893;49.864;19.084;2023-04-24T03:08:03;13.81;51.55
68109;SHT30;54893;49.864;19.084;2023-04-24T03:13:04;13.71;51.73
68109;SHT30;54893;49.864;19.084;2023-04-24T03:18:05;13.95;51.09
68109;SHT30;54893;49.864;19.084;2023-04-24T03:23:05;14.08;50.95
68109;SHT30;54893;49.864;19.084;2023-04-24T03:28:05;13.81;51.76
68109;SHT30;54893;49.864;19.084;2023-04-24T03:33:06;14.14;50.97
68109;SHT30;54893;49.864;19.084;2023-04-24T03:38:06;14.32;50.53
68109;SHT30;54893;49.864;19.084;2023-04-24T03:43:06;14.29;50.77
68109;SHT30;54893;49.864;19.084;2023-04-24T03:48:07;14.39;50.61
68109;SHT30;54893;49.864;19.084;2023-04-24T03:53:07;14.32;51.00
68109;SHT30;54893;49.864;19.084;2023-04-24T03:58:08;14.36;51.07
68109;SHT30;54893;49.864;19.084;2023-04-24T04:03:08;14.31;51.43
68109;SHT30;54893;49.864;19.084;2023-04-24T04:08:09;14.59;50.51
68109;SHT30;54893;49.864;19.084;2023-04-24T04:13:09;14.69;50.35
68109;SHT30;54893;49.864;19.084;2023-04-24T04:18:09;14.79;49.83
68109;SHT30;54893;49.864;19.084;2023-04-24T04:23:10;14.95;49.89
68109;SHT30;54893;49.864;19.084;2023-04-24T04:28:10;15.14;49.49
68109;SHT30;54893;49.864;19.084;2023-04-24T04:33:10;15.23;49.47
68109;SHT30;54893;49.864;19.084;2023-04-24T04:38:11;15.43;49.02
68109;SHT30;54893;49.864;19.084;2023-04-24T04:43:12;15.57;48.58
68109;SHT30;54893;49.864;19.084;2023-04-24T04:48:13;15.71;48.47
68109;SHT30;54893;49.864;19.084;2023-04-24T04:53:14;15.95;48.19
68109;SHT30;54893;49.864;19.084;2023-04-24T04:58:14;16.11;48.02
68109;SHT30;54893;49.864;19.084;2023-04-24T05:03:15;16.51;47.42
68109;SHT30;54893;49.864;19.084;2023-04-24T05:08:15;16.76;46.93
68109;SHT30;54893;49.864;19.084;2023-04-24T05:13:15;17.02;46.73
68109;SHT30;54893;49.864;19.084;2023-04-24T05:18:16;17.43;46.70
68109;SHT30;54893;49.864;19.084;2023-04-24T05:23:16;17.40;46.78
68109;SHT30;54893;49.864;19.084;2023-04-24T05:28:16;17.24;46.52
68109;SHT30;54893;49.864;19.084;2023-04-24T05:33:17;17.27;47.15
68109;SHT30;54893;49.864;19.084;2023-04-24T05:38:17;17.12;46.98
68109;SHT30;54893;49.864;19.084;2023-04-24T05:43:19;17.40;46.67
68109;SHT30;54893;49.864;19.084;2023-04-24T05:48:19;17.49;45.88
68109;SHT30;54893;49.864;19.084;2023-04-24T05:53:22;18.12;46.27
68109;SHT30;54893;49.864;19.084;2023-04-24T05:58:22;18.35;45.04
68109;SHT30;54893;49.864;19.084;2023-04-24T06:03:22;19.15;45.63
68109;SHT30;54893;49.864;19.084;2023-04-24T06:08:23;19.27;45.44
68109;SHT30;54893;49.864;19.084;2023-04-24T06:13:23;19.41;45.05
68109;SHT30;54893;49.864;19.084;2023-04-24T06:18:23;19.37;45.34
68109;SHT30;54893;49.864;19.084;2023-04-24T06:23:24;19.66;45.19
68109;SHT30;54893;49.864;19.084;2023-04-24T06:28:24;19.27;46.59
68109;SHT30;54893;49.864;19.084;2023-04-24T06:33:25;19.13;46.67
68109;SHT30;54893;49.864;19.084;2023-04-24T06:38:25;19.78;45.61
68109;SHT30;54893;49.864;19.084;2023-04-24T06:43:26;20.55;44.74
68109;SHT30;54893;49.864;19.084;2023-04-24T06:48:26;20.68;45.65
68109;SHT30;54893;49.864;19.084;2023-04-24T06:53:26;21.53;43.26
68109;SHT30;54893;49.864;19.084;2023-04-24T06:58:27;22.31;43.35
68109;SHT30;54893;49.864;19.084;2023-04-24T07:03:27;22.30;43.66
68109;SHT30;54893;49.864;19.084;2023-04-24T07:08:28;22.69;42.29
68109;SHT30;54893;49.864;19.084;2023-04-24T07:13:30;22.41;42.87
68109;SHT30;54893;49.864;19.084;2023-04-24T07:18:30;22.54;43.75
68109;SHT30;54893;49.864;19.084;2023-04-24T07:23:31;22.00;44.49
68109;SHT30;54893;49.864;19.084;2023-04-24T07:28:31;21.98;44.60
68109;SHT30;54893;49.864;19.084;2023-04-24T07:33:31;22.65;44.24
68109;SHT30;54893;49.864;19.084;2023-04-24T07:38:32;22.18;44.82
68109;SHT30;54893;49.864;19.084;2023-04-24T07:43:32;22.02;44.29
68109;SHT30;54893;49.864;19.084;2023-04-24T07:48:32;22.51;44.04
68109;SHT30;54893;49.864;19.084;2023-04-24T07:53:33;21.78;43.40
68109;SHT30;54893;49.864;19.084;2023-04-24T07:58:34;21.93;44.07
68109;SHT30;54893;49.864;19.084;2023-04-24T08:03:34;21.63;42.79
68109;SHT30;54893;49.864;19.084;2023-04-24T08:08:35;22.28;42.80
68109;SHT30;54893;49.864;19.084;2023-04-24T08:13:35;21.76;43.66
68109;SHT30;54893;49.864;19.084;2023-04-24T08:18:35;23.02;43.27
68109;SHT30;54893;49.864;19.084;2023-04-24T08:23:36;23.50;42.67
68109;SHT30;54893;49.864;19.084;2023-04-24T08:28:37;22.65;42.91
68109;SHT30;54893;49.864;19.084;2023-04-24T08:33:37;22.42;43.24
68109;SHT30;54893;49.864;19.084;2023-04-24T08:38:37;22.68;43.53
68109;SHT30;54893;49.864;19.084;2023-04-24T08:43:38;23.39;42.31
68109;SHT30;54893;49.864;19.084;2023-04-24T08:48:39;23.88;42.17
68109;SHT30;54893;49.864;19.084;2023-04-24T08:53:40;23.49;43.17
68109;SHT30;54893;49.864;19.084;2023-04-24T08:58:41;24.00;42.34
68109;SHT30;54893;49.864;19.084;2023-04-24T09:03:41;23.64;43.04
68109;SHT30;54893;49.864;19.084;2023-04-24T09:08:43;23.57;42.32
68109;SHT30;54893;49.864;19.084;2023-04-24T09:13:45;22.42;43.31
68109;SHT30;54893;49.864;19.084;2023-04-24T09:18:46;21.09;45.44
68109;SHT30;54893;49.864;19.084;2023-04-24T09:23:46;21.10;45.37
68109;SHT30;54893;49.864;19.084;2023-04-24T09:28:46;20.80;46.26
68109;SHT30;54893;49.864;19.084;2023-04-24T09:38:58;19.90;47.77
68109;SHT30;54893;49.864;19.084;2023-04-24T09:44:13;19.71;47.99
68109;SHT30;54893;49.864;19.084;2023-04-24T09:49:15;20.01;47.43
68109;SHT30;54893;49.864;19.084;2023-04-24T09:54:18;19.61;48.68
68109;SHT30;54893;49.864;19.084;2023-04-24T09:59:21;19.41;48.62
68109;SHT30;54893;49.864;19.084;2023-04-24T10:04:23;19.33;48.98
68109;SHT30;54893;49.864;19.084;2023-04-24T10:09:25;19.60;48.04
68109;SHT30;54893;49.864;19.084;2023-04-24T10:14:26;19.43;48.64
68109;SHT30;54893;49.864;19.084;2023-04-24T10:19:26;19.45;49.40
68109;SHT30;54893;49.864;19.084;2023-04-24T10:24:28;19.71;48.72
68109;SHT30;54893;49.864;19.084;2023-04-24T10:29:30;19.66;48.80
68109;SHT30;54893;49.864;19.084;2023-04-24T10:34:31;19.43;49.14
68109;SHT30;54893;49.864;19.084;2023-04-24T10:39:31;18.73;50.93
68109;SHT30;54893;49.864;19.084;2023-04-24T10:44:36;18.49;51.65
68109;SHT30;54893;49.864;19.084;2023-04-24T10:49:37;17.70;54.37
68109;SHT30;54893;49.864;19.084;2023-04-24T10:59:40;16.69;57.48
68109;SHT30;54893;49.864;19.084;2023-04-24T11:04:41;16.19;60.02
68109;SHT30;54893;49.864;19.084;2023-04-24T11:09:43;16.02;61.22
68109;SHT30;54893;49.864;19.084;2023-04-24T11:20:11;15.91;61.00
68109;SHT30;54893;49.864;19.084;2023-04-24T11:25:11;15.58;62.43
68109;SHT30;54893;49.864;19.084;2023-04-24T11:30:12;15.51;63.36
68109;SHT30;54893;49.864;19.084;2023-04-24T11:35:19;15.33;63.85
68109;SHT30;54893;49.864;19.084;2023-04-24T11:40:22;15.20;64.76
68109;SHT30;54893;49.864;19.084;2023-04-24T11:45:25;14.90;66.82
68109;SHT30;54893;49.864;19.084;2023-04-24T11:50:26;14.76;67.86
68109;SHT30;54893;49.864;19.084;2023-04-24T11:55:29;14.59;69.83
68109;SHT30;54893;49.864;19.084;2023-04-24T12:00:31;14.36;70.16
68109;SHT30;54893;49.864;19.084;2023-04-24T12:05:33;14.39;69.67
68109;SHT30;54893;49.864;19.084;2023-04-24T12:10:35;14.33;70.84
68109;SHT30;54893;49.864;19.084;2023-04-24T12:15:35;14.53;69.99
68109;SHT30;54893;49.864;19.084;2023-04-24T12:20:40;14.52;69.77
68109;SHT30;54893;49.864;19.084;2023-04-24T12:25:40;14.85;69.37
68109;SHT30;54893;49.864;19.084;2023-04-24T12:30:47;14.92;69.04
68109;SHT30;54893;49.864;19.084;2023-04-24T12:35:52;14.77;69.16
68109;SHT30;54893;49.864;19.084;2023-04-24T12:41:10;14.69;69.89
68109;SHT30;54893;49.864;19.084;2023-04-24T12:46:10;14.51;70.37
68109;SHT30;54893;49.864;19.084;2023-04-24T12:51:10;14.43;70.02
68109;SHT30;54893;49.864;19.084;2023-04-24T12:56:11;14.29;70.51
68109;SHT30;54893;49.864;19.084;2023-04-24T13:01:11;14.39;70.98
68109;SHT30;54893;49.864;19.084;2023-04-24T13:06:11;14.05;72.51
68109;SHT30;54893;49.864;19.084;2023-04-24T13:11:12;13.79;74.15
68109;SHT30;54893;49.864;19.084;2023-04-24T13:16:12;13.58;74.98
68109;SHT30;54893;49.864;19.084;2023-04-24T13:21:12;13.32;77.23
68109;SHT30;54893;49.864;19.084;2023-04-24T13:26:13;13.42;77.20
68109;SHT30;54893;49.864;19.084;2023-04-24T13:31:13;13.20;77.38
68109;SHT30;54893;49.864;19.084;2023-04-24T13:36:14;13.14;79.15
68109;SHT30;54893;49.864;19.084;2023-04-24T13:41:14;12.97;79.24
68109;SHT30;54893;49.864;19.084;2023-04-24T13:46:16;12.99;78.96
68109;SHT30;54893;49.864;19.084;2023-04-24T13:51:16;13.00;79.71
68109;SHT30;54893;49.864;19.084;2023-04-24T13:56:17;12.93;81.99
68109;SHT30;54893;49.864;19.084;2023-04-24T14:01:17;13.09;81.59
68109;SHT30;54893;49.864;19.084;2023-04-24T14:06:18;13.12;81.16
68109;SHT30;54893;49.864;19.084;2023-04-24T14:11:19;13.55;78.64
68109;SHT30;54893;49.864;19.084;2023-04-24T14:16:20;13.48;79.75
68109;SHT30;54893;49.864;19.084;2023-04-24T14:21:20;13.47;80.08
68109;SHT30;54893;49.864;19.084;2023-04-24T14:26:20;13.63;79.80
68109;SHT30;54893;49.864;19.084;2023-04-24T14:31:21;13.87;78.20
68109;SHT30;54893;49.864;19.084;2023-04-24T14:36:22;13.68;78.87
68109;SHT30;54893;49.864;19.084;2023-04-24T14:41:22;13.55;78.68
68109;SHT30;54893;49.864;19.084;2023-04-24T14:46:22;13.57;78.44
68109;SHT30;54893;49.864;19.084;2023-04-24T14:51:23;13.48;78.30
68109;SHT30;54893;49.864;19.084;2023-04-24T14:56:23;13.42;78.25
68109;SHT30;54893;49.864;19.084;2023-04-24T15:01:24;13.23;79.36
68109;SHT30;54893;49.864;19.084;2023-04-24T15:06:24;13.32;78.34
68109;SHT30;54893;49.864;19.084;2023-04-24T15:11:25;13.04;78.33
68109;SHT30;54893;49.864;19.084;2023-04-24T15:16:26;12.92;79.06
68109;SHT30;54893;49.864;19.084;2023-04-24T15:21:26;12.85;79.27
68109;SHT30;54893;49.864;19.084;2023-04-24T15:26:26;12.65;79.16
68109;SHT30;54893;49.864;19.084;2023-04-24T15:31:27;12.52;79.82
68109;SHT30;54893;49.864;19.084;2023-04-24T15:36:27;12.32;80.22
68109;SHT30;54893;49.864;19.084;2023-04-24T15:41:27;12.21;81.14
68109;SHT30;54893;49.864;19.084;2023-04-24T15:46:28;12.21;80.36
68109;SHT30;54893;49.864;19.084;2023-04-24T15:51:28;12.14;81.18
68109;SHT30;54893;49.864;19.084;2023-04-24T15:56:29;12.14;81.55
68109;SHT30;54893;49.864;19.084;2023-04-24T16:01:30;12.02;81.05
68109;SHT30;54893;49.864;19.084;2023-04-24T16:06:30;12.02;81.30
68109;SHT30;54893;49.864;19.084;2023-04-24T16:11:32;12.01;81.53
68109;SHT30;54893;49.864;19.084;2023-04-24T16:16:32;11.99;80.86
68109;SHT30;54893;49.864;19.084;2023-04-24T16:21:33;11.88;82.47
68109;SHT30;54893;49.864;19.084;2023-04-24T16:26:33;11.87;82.47
68109;SHT30;54893;49.864;19.084;2023-04-24T16:31:33;11.85;82.42
68109;SHT30;54893;49.864;19.084;2023-04-24T16:36:34;11.87;82.82
68109;SHT30;54893;49.864;19.084;2023-04-24T16:41:35;11.92;81.56
68109;SHT30;54893;49.864;19.084;2023-04-24T16:46:35;11.88;82.06
68109;SHT30;54893;49.864;19.084;2023-04-24T16:51:36;11.78;82.17
68109;SHT30;54893;49.864;19.084;2023-04-24T16:56:37;11.80;82.24
68109;SHT30;54893;49.864;19.084;2023-04-24T17:01:37;11.81;82.72
68109;SHT30;54893;49.864;19.084;2023-04-24T17:06:37;11.74;82.58
68109;SHT30;54893;49.864;19.084;2023-04-24T17:11:38;11.70;82.42
68109;SHT30;54893;49.864;19.084;2023-04-24T17:16:38;11.77;81.79
68109;SHT30;54893;49.864;19.084;2023-04-24T17:21:40;11.75;81.98
68109;SHT30;54893;49.864;19.084;2023-04-24T17:26:40;11.71;82.03
68109;SHT30;54893;49.864;19.084;2023-04-24T17:31:40;11.74;82.22
68109;SHT30;54893;49.864;19.084;2023-04-24T17:36:41;11.74;83.02
68109;SHT30;54893;49.864;19.084;2023-04-24T17:41:41;11.71;83.09
68109;SHT30;54893;49.864;19.084;2023-04-24T17:46:41;11.61;83.37
68109;SHT30;54893;49.864;19.084;2023-04-24T17:51:42;11.58;85.28
68109;SHT30;54893;49.864;19.084;2023-04-24T17:56:42;11.51;84.88
68109;SHT30;54893;49.864;19.084;2023-04-24T18:01:43;11.43;85.39
68109;SHT30;54893;49.864;19.084;2023-04-24T18:06:43;11.38;84.09
68109;SHT30;54893;49.864;19.084;2023-04-24T18:11:43;11.38;85.36
68109;SHT30;54893;49.864;19.084;2023-04-24T18:16:45;11.37;85.06
68109;SHT30;54893;49.864;19.084;2023-04-24T18:21:45;11.38;85.57
68109;SHT30;54893;49.864;19.084;2023-04-24T18:26:46;11.24;86.56
68109;SHT30;54893;49.864;19.084;2023-04-24T18:31:46;11.30;85.64
68109;SHT30;54893;49.864;19.084;2023-04-24T18:36:47;11.28;86.06
68109;SHT30;54893;49.864;19.084;2023-04-24T18:41:47;11.23;89.46
68109;SHT30;54893;49.864;19.084;2023-04-24T18:46:47;11.28;87.20
68109;SHT30;54893;49.864;19.084;2023-04-24T18:51:48;11.30;86.78
68109;SHT30;54893;49.864;19.084;2023-04-24T18:56:49;11.28;87.52
68109;SHT30;54893;49.864;19.084;2023-04-24T19:01:50;11.26;88.21
68109;SHT30;54893;49.864;19.084;2023-04-24T19:06:50;11.10;89.39
68109;SHT30;54893;49.864;19.084;2023-04-24T19:11:51;10.93;89.95
68109;SHT30;54893;49.864;19.084;2023-04-24T19:16:51;10.82;90.06
68109;SHT30;54893;49.864;19.084;2023-04-24T19:21:51;10.84;90.30
68109;SHT30;54893;49.864;19.084;2023-04-24T19:26:52;10.89;90.54
68109;SHT30;54893;49.864;19.084;2023-04-24T19:31:53;10.83;90.95
68109;SHT30;54893;49.864;19.084;2023-04-24T19:36:54;10.79;91.68
68109;SHT30;54893;49.864;19.084;2023-04-24T19:41:55;10.76;92.03
68109;SHT30;54893;49.864;19.084;2023-04-24T19:46:56;10.69;92.56
68109;SHT30;54893;49.864;19.084;2023-04-24T19:51:56;10.68;92.89
68109;SHT30;54893;49.864;19.084;2023-04-24T19:56:56;10.66;93.15
68109;SHT30;54893;49.864;19.084;2023-04-24T20:01:57;10.62;94.08
68109;SHT30;54893;49.864;19.084;2023-04-24T20:06:57;10.59;94.26
68109;SHT30;54893;49.864;19.084;2023-04-24T20:11:58;10.55;95.15
68109;SHT30;54893;49.864;19.084;2023-04-24T20:16:58;10.59;94.83
68109;SHT30;54893;49.864;19.084;2023-04-24T20:21:58;10.72;94.95
68109;SHT30;54893;49.864;19.084;2023-04-24T20:26:59;10.70;94.99
68109;SHT30;54893;49.864;19.084;2023-04-24T20:32:01;10.58;95.39
68109;SHT30;54893;49.864;19.084;2023-04-24T20:37:01;10.56;95.54
68109;SHT30;54893;49.864;19.084;2023-04-24T20:42:03;10.58;95.72
68109;SHT30;54893;49.864;19.084;2023-04-24T20:47:04;10.55;95.82
68109;SHT30;54893;49.864;19.084;2023-04-24T20:52:05;10.45;96.18
68109;SHT30;54893;49.864;19.084;2023-04-24T20:57:07;10.46;95.91
68109;SHT30;54893;49.864;19.084;2023-04-24T21:02:08;10.48;95.82
68109;SHT30;54893;49.864;19.084;2023-04-24T21:07:08;10.45;95.97
68109;SHT30;54893;49.864;19.084;2023-04-24T21:12:09;10.46;96.24
68109;SHT30;54893;49.864;19.084;2023-04-24T21:17:09;10.46;96.41
68109;SHT30;54893;49.864;19.084;2023-04-24T21:22:10;10.44;96.07
68109;SHT30;54893;49.864;19.084;2023-04-24T21:27:10;10.44;96.20
68109;SHT30;54893;49.864;19.084;2023-04-24T21:32:10;10.55;95.85
68109;SHT30;54893;49.864;19.084;2023-04-24T21:37:11;10.59;95.64
68109;SHT30;54893;49.864;19.084;2023-04-24T21:42:12;10.52;95.83
68109;SHT30;54893;49.864;19.084;2023-04-24T21:47:13;10.46;95.65
68109;SHT30;54893;49.864;19.084;2023-04-24T21:52:13;10.46;95.73
68109;SHT30;54893;49.864;19.084;2023-04-24T21:57:13;10.42;95.36
68109;SHT30;54893;49.864;19.084;2023-04-24T22:02:14;10.39;95.45
68109;SHT30;54893;49.864;19.084;2023-04-24T22:07:14;10.41;95.48
68109;SHT30;54893;49.864;19.084;2023-04-24T22:12:15;10.35;95.38
68109;SHT30;54893;49.864;19.084;2023-04-24T22:17:16;10.39;94.98
68109;SHT30;54893;49.864;19.084;2023-04-24T22:22:16;10.34;95.18
68109;SHT30;54893;49.864;19.084;2023-04-24T22:27:17;10.26;95.62
68109;SHT30;54893;49.864;19.084;2023-04-24T22:32:17;10.21;95.41
68109;SHT30;54893;49.864;19.084;2023-04-24T22:37:18;10.34;95.04
68109;SHT30;54893;49.864;19.084;2023-04-24T22:42:18;10.16;95.41
68109;SHT30;54893;49.864;19.084;2023-04-24T22:47:18;10.18;95.51
68109;SHT30;54893;49.864;19.084;2023-04-24T22:52:19;10.05;95.70
68109;SHT30;54893;49.864;19.084;2023-04-24T22:57:20;10.01;95.91
68109;SHT30;54893;49.864;19.084;2023-04-24T23:02:21;9.95;96.16
68109;SHT30;54893;49.864;19.084;2023-04-24T23:07:22;10.02;95.78
68109;SHT30;54893;49.864;19.084;2023-04-24T23:12:22;9.90;96.19
68109;SHT30;54893;49.864;19.084;2023-04-24T23:17:22;9.97;95.90
68109;SHT30;54893;49.864;19.084;2023-04-24T23:22:23;9.84;96.02
68109;SHT30;54893;49.864;19.084;2023-04-24T23:27:23;9.81;96.40
68109;SHT30;54893;49.864;19.084;2023-04-24T23:32:23;9.77;96.20
68109;SHT30;54893;49.864;19.084;2023-04-24T23:37:24;9.75;96.36
68109;SHT30;54893;49.864;19.084;2023-04-24T23:42:24;9.71;96.42
68109;SHT30;54893;49.864;19.084;2023-04-24T23:47:25;9.65;96.72
68109;SHT30;54893;49.864;19.084;2023-04-24T23:52:25;9.67;96.61
68109;SHT30;54893;49.864;19.084;2023-04-24T23:57:25;9.65;96.71
